KBDL/BDL METAR and TAF weather

Enter ICAO airport designator
Station Type Date Time Source
KBDL METAR 2018/10/19 14:51 UTC NOAA

KBDL 191451Z 21007KT 10SM FEW200 10/M01 A3020 RMK AO2 SLP228 T01001006 58018


Station Type Date Time Source
KBDL Decoded METAR 2018/10/19 14:51 UTC NOAA

BRADLEY INTERNATIONAL AIRPORT , CT, United States (KBDL) 41-56N 072-41W 60M
Oct 19, 2018 - 10:51 AM EDT / 2018.10.19 1451 UTC
Wind: from the SSW (210 degrees) at 8 MPH (7 KT):0
Visibility: 10 mile(s):0
Sky conditions: mostly clear
Temperature: 50.0 F (10.0 C)
Dew Point: 30.9 F (-0.6 C)
Relative Humidity: 47%
Pressure (altimeter): 30.2 in. Hg (1022 hPa)
Pressure tendency: 0.05 inches (1.8 hPa) lower than three hours ago
ob: KBDL 191451Z 21007KT 10SM FEW200 10/M01 A3020 RMK AO2 SLP228 T01001006 58018
cycle: 15

Station Type Date Time Source
KBDL TAF 2018/10/19 15:03 UTC NOAA

TAF
AMD KBDL 191500Z 1915/2018 21007KT P6SM FEW200
FM200200 20010KT P6SM BKN140
FM201000 21010KT P6SM OVC050
FM201200 21010KT P6SM BKN015
FM201400 23010G18KT P6SM BKN020


Example: see airport list